Terminal Aerodrome Forecast
Issued by NWS Kansas City/Pleasant Hill, MO

Home | Current Version | Previous Version | Text Only | Print | Product List | Glossary On
Versions: 1 2 3 4 5 6 7 8 9 10 11 12 13 14 15 16 17 18 19 20 21
000
FTUS43 KEAX 220127 AAB
TAFMCI
TAF AMD
KMCI 220127Z 2201/2224 16008KT 5SM -TSRA OVC035CB
      TEMPO 2201/2205 1 1/2SM TSRA BR BKN015CB
     FM220900 28005KT P6SM VCTS OVC035CB
     FM221200 35005KT P6SM SCT025
     FM221600 36012KT P6SM SCT050=

USA.gov is the U.S. government's official web portal to all federal, state and local government web resources and services.